createdAt,value
2023-02-11T00:01:53.714Z,6.10
2023-02-11T00:04:20.893Z,6.18
2023-02-11T00:06:48.035Z,5.80
2023-02-11T00:09:15.184Z,8.07
2023-02-11T00:11:42.306Z,5.72
2023-02-11T00:14:11.117Z,5.30
2023-02-11T00:16:38.269Z,6.93
2023-02-11T00:19:06.993Z,7.50
2023-02-11T00:21:34.227Z,6.78
2023-02-11T00:24:02.289Z,7.07
2023-02-11T00:26:32.766Z,5.90
2023-02-11T00:29:00.805Z,6.68
2023-02-11T00:31:28.631Z,4.63
2023-02-11T00:33:56.202Z,6.10
2023-02-11T00:36:27.261Z,5.05
2023-02-11T00:38:54.690Z,4.72
2023-02-11T00:41:22.212Z,6.03
2023-02-11T00:43:49.599Z,7.13
2023-02-11T00:46:17.511Z,4.55
2023-02-11T00:48:44.725Z,4.88
2023-02-11T00:51:12.197Z,5.22
2023-02-11T00:53:39.524Z,4.63
2023-02-11T00:56:07.234Z,4.40
2023-02-11T00:58:34.393Z,5.20
2023-02-11T01:01:01.546Z,5.03
2023-02-11T01:03:28.720Z,6.25
2023-02-11T01:05:55.966Z,6.00
2023-02-11T01:08:23.188Z,5.78
2023-02-11T01:11:01.143Z,4.13
2023-02-11T01:13:28.494Z,6.22
2023-02-11T01:15:56.989Z,4.60
2023-02-11T01:18:24.396Z,12.60
2023-02-11T01:20:51.909Z,5.75
2023-02-11T01:23:19.352Z,7.18
2023-02-11T01:25:46.872Z,5.53
2023-02-11T01:28:21.161Z,5.65
2023-02-11T01:30:48.420Z,4.63
2023-02-11T01:33:15.687Z,5.13
2023-02-11T01:35:43.276Z,4.78
2023-02-11T01:38:16.094Z,4.40
2023-02-11T01:40:47.572Z,4.78
2023-02-11T01:43:14.639Z,4.35
2023-02-11T01:45:48.548Z,4.68
2023-02-11T01:48:22.294Z,5.25
2023-02-11T01:50:51.272Z,5.07
2023-02-11T01:58:51.842Z,4.00
2023-02-11T02:01:22.790Z,5.07
2023-02-11T02:03:51.385Z,4.93
2023-02-11T02:06:34.187Z,4.10
2023-02-11T02:09:06.763Z,3.85
2023-02-11T02:11:33.912Z,6.35
2023-02-11T02:14:01.108Z,4.32
2023-02-11T02:16:33.770Z,4.18
2023-02-11T02:19:12.408Z,4.28
2023-02-11T02:21:39.525Z,4.45
2023-02-11T02:24:14.151Z,5.85
2023-02-11T02:26:44.457Z,4.10
2023-02-11T02:29:30.268Z,3.75
2023-02-11T02:32:16.237Z,4.35
2023-02-11T02:35:16.694Z,3.75
2023-02-11T02:37:43.796Z,2.92
2023-02-11T02:40:13.596Z,4.60
2023-02-11T02:42:41.995Z,4.13
2023-02-11T02:45:09.908Z,3.25
2023-02-11T02:47:37.059Z,4.38
2023-02-11T02:50:05.443Z,5.97
2023-02-11T02:52:44.542Z,4.22
2023-02-11T02:55:32.384Z,5.00
2023-02-11T02:58:02.232Z,4.63
2023-02-11T03:00:35.180Z,4.32
2023-02-11T03:03:18.249Z,4.80
2023-02-11T03:05:45.344Z,4.40
2023-02-11T03:08:22.623Z,4.00
2023-02-11T03:10:51.844Z,4.60
2023-02-11T03:13:20.684Z,5.78
2023-02-11T03:15:53.262Z,4.30
2023-02-11T03:18:23.060Z,4.32
2023-02-11T03:20:51.540Z,4.78
2023-02-11T03:23:38.876Z,5.72
2023-02-11T03:28:44.864Z,4.80
2023-02-11T03:31:16.356Z,5.40
2023-02-11T03:33:43.490Z,4.78
2023-02-11T03:36:15.315Z,5.25
2023-02-11T03:38:46.161Z,3.65
2023-02-11T03:41:15.385Z,3.38
2023-02-11T03:43:53.723Z,3.70
2023-02-11T03:46:23.817Z,3.72
2023-02-11T03:48:53.180Z,4.00
2023-02-11T03:51:21.537Z,3.72
2023-02-11T03:53:49.425Z,3.03
2023-02-11T03:56:18.525Z,4.00
2023-02-11T03:58:46.296Z,5.05
2023-02-11T04:01:13.472Z,2.78
2023-02-11T04:03:40.658Z,3.55
2023-02-11T04:06:07.935Z,4.00
2023-02-11T04:08:35.160Z,3.42
2023-02-11T04:11:02.291Z,4.45
2023-02-11T04:13:29.383Z,3.78
2023-02-11T04:15:56.576Z,5.05
2023-02-11T04:18:23.736Z,4.57
2023-02-11T04:20:51.608Z,3.80
2023-02-11T04:23:18.804Z,4.60
2023-02-11T04:25:45.950Z,4.70
2023-02-11T04:28:13.246Z,4.13
2023-02-11T04:30:40.417Z,3.63
2023-02-11T04:33:07.570Z,3.35
2023-02-11T04:35:34.688Z,3.78
2023-02-11T04:38:01.814Z,4.32
2023-02-11T04:40:28.882Z,4.50
2023-02-11T04:42:56.000Z,4.03
2023-02-11T04:45:23.367Z,4.05
2023-02-11T04:47:50.654Z,3.85
2023-02-11T04:50:17.897Z,2.72
2023-02-11T04:52:45.015Z,3.47
2023-02-11T04:55:12.258Z,2.30
2023-02-11T04:57:39.418Z,5.75
2023-02-11T05:00:06.922Z,5.28
2023-02-11T05:02:34.028Z,3.20
2023-02-11T05:05:01.197Z,3.75
2023-02-11T05:07:28.403Z,3.65
2023-02-11T05:09:55.497Z,2.97
2023-02-11T05:12:22.718Z,3.47
2023-02-11T05:14:50.864Z,4.10
2023-02-11T05:17:18.568Z,5.15
2023-02-11T05:19:45.640Z,3.88
2023-02-11T05:22:12.742Z,3.85
2023-02-11T05:24:39.851Z,3.22
2023-02-11T05:27:06.958Z,4.97
2023-02-11T05:29:34.212Z,4.63
2023-02-11T05:32:01.304Z,5.40
2023-02-11T05:34:28.442Z,3.95
2023-02-11T05:36:55.659Z,5.07
2023-02-11T05:39:22.836Z,5.35
2023-02-11T05:41:49.915Z,3.35
2023-02-11T05:44:17.077Z,5.70
2023-02-11T05:46:44.360Z,2.90
2023-02-11T05:49:11.498Z,4.97
2023-02-11T05:51:38.683Z,4.65
2023-02-11T05:54:05.865Z,3.00
2023-02-11T05:56:32.992Z,3.38
2023-02-11T05:59:00.582Z,5.05
2023-02-11T06:01:27.750Z,4.30
2023-02-11T06:03:55.035Z,3.33
2023-02-11T06:06:22.229Z,4.65
2023-02-11T06:08:49.341Z,3.55
2023-02-11T06:11:17.065Z,2.88
2023-02-11T06:13:44.259Z,3.67
2023-02-11T06:16:11.491Z,4.20
2023-02-11T06:18:38.693Z,3.33
2023-02-11T06:21:09.668Z,4.57
2023-02-11T06:23:37.216Z,2.55
2023-02-11T06:26:08.348Z,3.92
2023-02-11T06:28:36.100Z,4.55
2023-02-11T06:31:07.523Z,3.13
2023-02-11T06:33:34.934Z,4.38
2023-02-11T06:36:04.088Z,3.25
2023-02-11T06:38:31.245Z,3.67
2023-02-11T06:40:58.321Z,3.97
2023-02-11T06:43:25.437Z,3.50
2023-02-11T06:45:56.143Z,4.60
2023-02-11T06:48:24.168Z,4.32
2023-02-11T06:50:51.290Z,6.25
2023-02-11T06:53:18.441Z,14.45
2023-02-11T06:55:45.791Z,21.73
2023-02-11T06:58:12.922Z,4.07
2023-02-11T07:00:41.193Z,6.07
2023-02-11T07:03:08.498Z,4.68
2023-02-11T07:05:37.165Z,6.75
2023-02-11T07:08:04.311Z,5.05
2023-02-11T07:10:33.717Z,5.60
2023-02-11T07:13:00.850Z,3.25
2023-02-11T07:15:27.954Z,5.82
2023-02-11T07:17:55.093Z,3.72
2023-02-11T07:20:22.274Z,4.93
2023-02-11T07:22:49.370Z,4.50
2023-02-11T07:25:16.537Z,6.80
2023-02-11T07:27:43.698Z,4.18
2023-02-11T07:30:11.287Z,3.92
2023-02-11T07:32:38.503Z,6.35
2023-02-11T07:35:08.085Z,2.88
2023-02-11T07:37:36.280Z,5.75
2023-02-11T07:40:03.434Z,3.83
2023-02-11T07:42:30.619Z,4.47
2023-02-11T07:44:57.734Z,5.13
2023-02-11T07:47:24.886Z,7.25
2023-02-11T07:49:54.601Z,5.43
2023-02-11T07:52:23.339Z,3.90
2023-02-11T07:54:50.459Z,7.50
2023-02-11T07:57:17.595Z,6.68
2023-02-11T07:59:44.718Z,5.28
2023-02-11T08:02:11.927Z,3.83
2023-02-11T08:04:39.130Z,5.00
2023-02-11T08:07:06.797Z,7.75
2023-02-11T08:09:34.611Z,4.35
2023-02-11T08:12:02.013Z,3.78
2023-02-11T08:14:29.373Z,4.15
2023-02-11T08:16:56.513Z,3.72
2023-02-11T08:19:23.683Z,3.83
2023-02-11T08:21:50.820Z,3.95
2023-02-11T08:24:17.997Z,4.30
2023-02-11T08:26:45.201Z,3.70
2023-02-11T08:29:13.492Z,4.38
2023-02-11T08:31:42.011Z,4.18
2023-02-11T08:34:11.468Z,2.97
2023-02-11T08:36:39.347Z,4.22
2023-02-11T08:39:18.538Z,3.97
2023-02-11T08:41:48.752Z,7.03
2023-02-11T08:44:16.058Z,4.38
2023-02-11T08:46:43.166Z,4.85
2023-02-11T08:49:10.348Z,3.83
2023-02-11T08:51:37.948Z,4.43
2023-02-11T08:54:09.302Z,5.03
2023-02-11T08:56:37.077Z,4.80
2023-02-11T08:59:04.450Z,3.92
2023-02-11T09:01:32.581Z,3.47
2023-02-11T09:04:01.081Z,5.88
2023-02-11T09:06:28.352Z,4.25
2023-02-11T09:08:56.910Z,6.68
2023-02-11T09:11:34.685Z,4.85
2023-02-11T09:14:02.455Z,3.58
2023-02-11T09:16:31.939Z,2.60
2023-02-11T09:18:59.896Z,5.28
2023-02-11T09:21:27.473Z,6.32
2023-02-11T09:23:54.610Z,4.10
2023-02-11T09:26:21.704Z,4.78
2023-02-11T09:28:48.936Z,3.40
2023-02-11T09:31:17.503Z,5.78
2023-02-11T09:33:48.943Z,4.65
2023-02-11T09:36:20.425Z,4.20
2023-02-11T09:38:47.860Z,4.90
2023-02-11T09:41:37.895Z,5.70
2023-02-11T09:44:06.881Z,5.65
2023-02-11T09:49:01.794Z,6.10
2023-02-11T09:51:28.874Z,5.60
2023-02-11T09:54:00.618Z,6.32
2023-02-11T09:56:29.294Z,6.20
2023-02-11T09:58:56.429Z,7.85
2023-02-11T10:01:43.881Z,10.18
2023-02-11T10:04:11.003Z,10.27
2023-02-11T10:06:44.295Z,9.38
2023-02-11T10:09:30.035Z,6.72
2023-02-11T10:11:57.136Z,5.63
2023-02-11T10:14:26.961Z,7.15
2023-02-11T10:17:12.383Z,7.03
2023-02-11T10:19:57.974Z,5.72
2023-02-11T10:22:29.163Z,4.22
2023-02-11T10:25:00.406Z,8.30
2023-02-11T10:27:30.288Z,7.10
2023-02-11T10:30:03.295Z,6.13
2023-02-11T10:32:34.932Z,8.10
2023-02-11T10:35:11.052Z,6.72
2023-02-11T10:37:38.214Z,5.43
2023-02-11T10:40:07.553Z,3.75
2023-02-11T10:42:35.552Z,8.05
2023-02-11T10:45:04.815Z,6.72
2023-02-11T10:47:36.969Z,5.25
2023-02-11T10:50:18.875Z,8.25
2023-02-11T10:52:46.022Z,4.40
2023-02-11T10:55:21.368Z,4.97
2023-02-11T10:57:59.067Z,5.18
2023-02-11T11:00:37.160Z,5.38
2023-02-11T11:03:06.420Z,4.63
2023-02-11T11:05:38.188Z,5.43
2023-02-11T11:08:08.990Z,6.15
2023-02-11T11:10:43.922Z,5.57
2023-02-11T11:13:26.019Z,6.10
2023-02-11T11:16:07.621Z,4.28
2023-02-11T11:18:34.790Z,5.60
2023-02-11T11:21:03.548Z,3.92
2023-02-11T11:23:31.685Z,3.92
2023-02-11T11:26:12.043Z,6.38
2023-02-11T11:28:43.505Z,5.45
2023-02-11T11:31:19.445Z,4.25
2023-02-11T11:33:47.046Z,3.72
2023-02-11T11:36:16.488Z,3.88
2023-02-11T11:38:50.439Z,3.85
2023-02-11T11:41:18.922Z,4.07
2023-02-11T11:44:12.409Z,4.05
2023-02-11T11:49:11.134Z,4.07
2023-02-11T11:51:40.818Z,4.57
2023-02-11T11:54:10.125Z,4.72
2023-02-11T11:56:40.394Z,3.85
2023-02-11T11:59:13.910Z,4.97
2023-02-11T12:01:56.182Z,3.88
2023-02-11T12:04:38.418Z,5.05
2023-02-11T12:07:12.023Z,3.25
2023-02-11T12:09:44.606Z,4.40
2023-02-11T12:12:11.781Z,3.95
2023-02-11T12:14:47.023Z,3.55
2023-02-11T12:17:33.020Z,3.35
2023-02-11T12:20:06.193Z,3.90
2023-02-11T12:22:46.133Z,3.60
2023-02-11T12:25:27.685Z,4.00
2023-02-11T12:28:03.954Z,4.18
2023-02-11T12:30:31.126Z,3.00
2023-02-11T12:33:19.536Z,3.30
2023-02-11T12:35:55.446Z,3.20
2023-02-11T12:38:30.257Z,3.83
2023-02-11T12:41:40.345Z,3.72
2023-02-11T12:44:10.356Z,3.88
2023-02-11T12:46:48.524Z,2.92
2023-02-11T12:49:38.564Z,3.17
2023-02-11T12:52:12.014Z,3.67
2023-02-11T12:54:48.457Z,4.13
2023-02-11T12:57:29.198Z,3.83
2023-02-11T12:59:59.574Z,4.80
2023-02-11T13:02:36.030Z,4.38
2023-02-11T13:05:13.346Z,4.10
2023-02-11T13:07:44.676Z,3.30
2023-02-11T13:10:15.542Z,3.63
2023-02-11T13:13:04.463Z,3.83
2023-02-11T13:15:31.747Z,4.25
2023-02-11T13:18:06.105Z,3.88
2023-02-11T13:20:43.700Z,3.15
2023-02-11T13:23:31.692Z,3.70
2023-02-11T13:26:03.297Z,4.15
2023-02-11T13:28:36.552Z,3.80
2023-02-11T13:31:07.003Z,3.28
2023-02-11T13:33:39.556Z,4.38
2023-02-11T13:36:06.844Z,3.55
2023-02-11T13:38:34.215Z,3.78
2023-02-11T13:41:04.980Z,3.58
2023-02-11T13:43:33.568Z,5.18
2023-02-11T13:46:02.530Z,4.82
2023-02-11T13:51:01.509Z,6.47
2023-02-11T13:53:29.081Z,4.18
2023-02-11T13:56:08.074Z,4.00
2023-02-11T13:58:39.709Z,4.75
2023-02-11T14:01:07.532Z,3.28
2023-02-11T14:03:55.695Z,5.22
2023-02-11T14:06:43.205Z,4.05
2023-02-11T14:09:30.268Z,3.58
2023-02-11T14:12:16.114Z,4.63
2023-02-11T14:15:04.279Z,3.65
2023-02-11T14:17:34.177Z,4.70
2023-02-11T14:20:04.307Z,3.58
2023-02-11T14:22:40.582Z,3.38
2023-02-11T14:25:17.007Z,6.10
2023-02-11T14:27:46.628Z,4.82
2023-02-11T14:30:15.025Z,4.65
2023-02-11T14:33:00.906Z,4.05
2023-02-11T14:35:27.997Z,3.33
2023-02-11T14:38:18.141Z,4.43
2023-02-11T14:40:55.081Z,3.88
2023-02-11T14:43:35.740Z,4.00
2023-02-11T14:46:03.546Z,3.60
2023-02-11T14:48:43.898Z,4.25
2023-02-11T14:51:13.897Z,3.35
2023-02-11T14:53:45.059Z,3.67
2023-02-11T14:56:24.525Z,3.95
2023-02-11T14:58:52.045Z,3.20
2023-02-11T15:01:27.349Z,3.88
2023-02-11T15:03:56.625Z,5.70
2023-02-11T15:06:26.519Z,4.15
2023-02-11T15:09:13.876Z,4.72
2023-02-11T15:14:09.948Z,4.25
2023-02-11T15:19:07.553Z,6.40
2023-02-11T15:21:36.327Z,4.35
2023-02-11T15:24:08.516Z,3.83
2023-02-11T15:26:35.655Z,3.95
2023-02-11T15:29:02.856Z,3.95
2023-02-11T15:31:33.173Z,3.67
2023-02-11T15:34:07.448Z,4.50
2023-02-11T15:36:36.396Z,5.60
2023-02-11T15:41:35.641Z,5.20
2023-02-11T15:44:03.111Z,5.18
2023-02-11T15:46:46.110Z,3.38
2023-02-11T15:49:19.145Z,5.32
2023-02-11T15:51:47.721Z,3.95
2023-02-11T15:54:17.730Z,4.53
2023-02-11T15:56:46.884Z,4.32
2023-02-11T15:59:28.216Z,5.05
2023-02-11T16:01:55.767Z,5.47
2023-02-11T16:04:24.404Z,4.97
2023-02-11T16:06:51.919Z,5.28
2023-02-11T16:09:25.297Z,4.72
2023-02-11T16:11:53.653Z,4.70
2023-02-11T16:14:20.812Z,4.18
2023-02-11T16:16:50.554Z,5.25
2023-02-11T16:19:23.587Z,4.68
2023-02-11T16:21:53.159Z,6.03
2023-02-11T16:24:22.598Z,4.55
2023-02-11T16:26:51.121Z,8.20
2023-02-11T16:29:22.234Z,8.32
2023-02-11T16:31:50.351Z,6.45
2023-02-11T16:34:21.547Z,3.25
2023-02-11T16:36:49.631Z,5.05
2023-02-11T16:39:17.239Z,6.65
2023-02-11T16:41:44.551Z,4.32
2023-02-11T16:44:11.721Z,6.18
2023-02-11T16:46:38.971Z,6.32
2023-02-11T16:49:26.285Z,7.45
2023-02-11T16:51:56.881Z,7.97
2023-02-11T16:54:24.649Z,6.97
2023-02-11T16:56:52.030Z,8.75
2023-02-11T16:59:19.142Z,6.50
2023-02-11T17:01:47.222Z,6.93
2023-02-11T17:04:40.452Z,7.03
2023-02-11T17:07:07.711Z,5.38
2023-02-11T17:09:34.824Z,5.07
2023-02-11T17:12:02.257Z,7.18
2023-02-11T17:14:29.388Z,7.30
2023-02-11T17:16:57.140Z,5.75
2023-02-11T17:19:24.821Z,6.90
2023-02-11T17:21:53.494Z,6.60
2023-02-11T17:24:21.452Z,6.00
2023-02-11T17:26:49.236Z,6.38
2023-02-11T17:29:20.500Z,4.57
2023-02-11T17:31:47.662Z,4.57
2023-02-11T17:34:15.418Z,3.70
2023-02-11T17:36:42.599Z,11.98
2023-02-11T17:39:09.765Z,8.15
2023-02-11T17:41:38.050Z,18.65
2023-02-11T17:44:05.324Z,15.73
2023-02-11T17:46:32.602Z,14.00
2023-02-11T17:49:02.153Z,45.03
2023-02-11T17:51:31.303Z,22.60
2023-02-11T17:53:59.649Z,35.20
2023-02-11T17:56:27.157Z,23.70
2023-02-11T17:58:54.343Z,35.17
2023-02-11T18:01:21.606Z,21.70
2023-02-11T18:03:48.752Z,12.73
2023-02-11T18:06:15.880Z,15.85
2023-02-11T18:08:43.081Z,9.77
2023-02-11T18:11:11.217Z,9.18
2023-02-11T18:13:38.551Z,12.00
2023-02-11T18:16:07.230Z,12.80
2023-02-11T18:18:34.704Z,17.15
2023-02-11T18:21:04.036Z,9.70
2023-02-11T18:23:31.344Z,10.40
2023-02-11T18:25:58.449Z,9.68
2023-02-11T18:28:25.624Z,13.95
2023-02-11T18:30:59.526Z,14.00
2023-02-11T18:33:27.313Z,9.75
2023-02-11T18:35:54.539Z,9.30
2023-02-11T18:38:23.219Z,13.38
2023-02-11T18:40:50.655Z,11.32
2023-02-11T18:43:18.220Z,9.27
2023-02-11T18:45:46.196Z,8.68
2023-02-11T18:48:13.785Z,6.47
2023-02-11T18:50:41.720Z,6.72
2023-02-11T18:53:09.004Z,7.70
2023-02-11T18:55:36.328Z,11.88
2023-02-11T18:58:03.471Z,7.20
2023-02-11T19:00:31.231Z,8.15
2023-02-11T19:02:58.949Z,4.93
2023-02-11T19:05:28.709Z,5.75
2023-02-11T19:07:58.906Z,5.18
2023-02-11T19:10:26.191Z,10.63
2023-02-11T19:12:58.917Z,7.05
2023-02-11T19:15:26.418Z,6.43
2023-02-11T19:17:53.572Z,8.85
2023-02-11T19:20:20.843Z,6.85
2023-02-11T19:22:47.986Z,4.85
2023-02-11T19:25:15.076Z,7.03
2023-02-11T19:27:42.303Z,10.07
2023-02-11T19:30:10.341Z,6.47
2023-02-11T19:32:37.460Z,8.75
2023-02-11T19:35:04.916Z,5.03
2023-02-11T19:37:32.081Z,8.77
2023-02-11T19:39:59.218Z,7.70
2023-02-11T19:42:27.721Z,7.75
2023-02-11T19:44:54.946Z,10.02
2023-02-11T19:47:27.585Z,5.75
2023-02-11T19:49:55.133Z,9.93
2023-02-11T19:52:22.252Z,6.03
2023-02-11T19:54:49.418Z,6.05
2023-02-11T19:57:16.593Z,6.10
2023-02-11T19:59:43.786Z,4.88
2023-02-11T20:02:12.096Z,7.00
2023-02-11T20:04:39.584Z,5.18
2023-02-11T20:07:06.828Z,4.35
2023-02-11T20:09:34.224Z,4.45
2023-02-11T20:12:01.438Z,6.32
2023-02-11T20:14:28.709Z,5.88
2023-02-11T20:16:55.944Z,5.50
2023-02-11T20:19:23.121Z,5.82
2023-02-11T20:21:52.036Z,5.18
2023-02-11T20:26:48.170Z,6.40
2023-02-11T20:29:15.920Z,6.53
2023-02-11T20:31:43.329Z,5.57
2023-02-11T20:34:11.953Z,4.07
2023-02-11T20:36:40.363Z,3.97
2023-02-11T20:39:07.693Z,4.50
2023-02-11T20:41:36.065Z,5.65
2023-02-11T20:44:05.017Z,4.85
2023-02-11T20:49:00.535Z,4.50
2023-02-11T20:51:29.139Z,3.88
2023-02-11T20:53:56.825Z,4.03
2023-02-11T20:56:25.225Z,3.90
2023-02-11T20:58:53.233Z,5.43
2023-02-11T21:01:25.172Z,5.93
2023-02-11T21:03:57.038Z,4.60
2023-02-11T21:06:25.057Z,6.72
2023-02-11T21:08:52.536Z,4.00
2023-02-11T21:11:19.798Z,5.55
2023-02-11T21:13:46.909Z,4.40
2023-02-11T21:16:14.981Z,5.55
2023-02-11T21:18:43.064Z,7.55
2023-02-11T21:21:10.189Z,7.13
2023-02-11T21:23:39.529Z,3.58
2023-02-11T21:26:07.409Z,4.43
2023-02-11T21:28:34.965Z,4.57
2023-02-11T21:31:02.438Z,4.80
2023-02-11T21:33:30.513Z,3.80
2023-02-11T21:36:02.170Z,4.35
2023-02-11T21:38:29.348Z,4.53
2023-02-11T21:40:56.904Z,4.38
2023-02-11T21:43:24.883Z,4.30
2023-02-11T21:45:52.261Z,3.83
2023-02-11T21:48:19.879Z,4.65
2023-02-11T21:50:47.820Z,5.00
2023-02-11T21:53:15.425Z,3.28
2023-02-11T21:55:42.627Z,3.50
2023-02-11T21:58:10.256Z,3.70
2023-02-11T22:00:37.387Z,4.43
2023-02-11T22:03:04.888Z,4.55
2023-02-11T22:05:32.024Z,4.65
2023-02-11T22:07:59.162Z,3.67
2023-02-11T22:10:26.737Z,4.38
2023-02-11T22:12:53.844Z,4.18
2023-02-11T22:15:20.994Z,3.28
2023-02-11T22:17:48.094Z,4.07
2023-02-11T22:20:16.817Z,4.32
2023-02-11T22:22:43.918Z,5.20
2023-02-11T22:25:11.220Z,4.93
2023-02-11T22:27:38.304Z,4.75
2023-02-11T22:30:05.849Z,4.05
2023-02-11T22:32:32.981Z,3.03
2023-02-11T22:35:00.291Z,4.18
2023-02-11T22:37:27.465Z,4.05
2023-02-11T22:39:54.539Z,3.50
2023-02-11T22:42:22.378Z,4.28
2023-02-11T22:44:49.535Z,3.97
2023-02-11T22:47:16.666Z,5.88
2023-02-11T22:49:43.775Z,3.85
2023-02-11T22:52:11.980Z,4.35
2023-02-11T22:54:39.193Z,3.72
2023-02-11T22:57:06.304Z,4.30
2023-02-11T22:59:33.402Z,4.35
2023-02-11T23:02:00.682Z,5.03
2023-02-11T23:04:27.841Z,4.93
2023-02-11T23:06:54.997Z,7.75
2023-02-11T23:09:22.154Z,3.80
2023-02-11T23:11:49.845Z,3.63
2023-02-11T23:14:17.008Z,4.75
2023-02-11T23:16:44.153Z,4.35
2023-02-11T23:19:12.358Z,5.60
2023-02-11T23:21:40.002Z,3.90
2023-02-11T23:24:09.324Z,4.22
2023-02-11T23:26:37.941Z,3.63
2023-02-11T23:29:05.072Z,3.83
2023-02-11T23:31:34.138Z,4.63
2023-02-11T23:34:02.017Z,4.07
2023-02-11T23:36:29.359Z,4.55
2023-02-11T23:38:56.468Z,4.10
2023-02-11T23:41:23.809Z,3.83
2023-02-11T23:43:51.913Z,3.47
2023-02-11T23:46:19.505Z,4.22
2023-02-11T23:48:46.783Z,3.70
2023-02-11T23:51:13.992Z,4.10
2023-02-11T23:53:41.583Z,3.50
2023-02-11T23:56:10.033Z,5.40
2023-02-11T23:58:37.216Z,4.47
